Time;durP1;ratioP1;P1;durP2;ratioP2;P2;SDS_P1;SDS_P2;PMS_P1;PMS_P2;Temp;Humidity;BMP_temperature;BMP_pressure;BME280_temperature;BME280_humidity;BME280_pressure;Samples;Min_cycle;Max_cycle;Signal;HPM_P1;HPM_P2
2022/07/21 00:01:09;;;;;;;7.10;6.53;;;27.00;72.50;;;;;;5072556;28;20443;-64
2022/07/21 00:03:35;;;;;;;7.00;6.40;;;27.00;72.90;;;;;;5072536;28;20531;-64
2022/07/21 00:06:02;;;;;;;8.77;6.63;;;27.10;73.30;;;;;;5072475;28;20451;-64
2022/07/21 00:08:29;;;;;;;8.27;6.37;;;27.00;72.90;;;;;;5072591;28;20475;-63
2022/07/21 00:10:55;;;;;;;7.60;6.90;;;27.00;72.90;;;;;;5076443;28;20447;-63
2022/07/21 00:13:22;;;;;;;13.40;6.73;;;26.50;71.60;;;;;;5076192;28;21017;-63
2022/07/21 00:15:49;;;;;;;6.90;6.27;;;26.00;71.90;;;;;;5076322;28;20456;-63
2022/07/21 00:18:16;;;;;;;7.97;7.20;;;25.90;72.50;;;;;;5076098;28;20545;-63
2022/07/21 00:20:43;;;;;;;7.70;6.77;;;25.70;72.00;;;;;;5076067;28;20447;-63
2022/07/21 00:23:10;;;;;;;8.20;6.60;;;25.80;72.40;;;;;;5076265;28;20483;-63
2022/07/21 00:25:36;;;;;;;6.60;6.10;;;25.50;72.70;;;;;;5076198;28;20453;-63
2022/07/21 00:28:04;;;;;;;8.97;7.00;;;25.60;72.80;;;;;;5076025;28;20891;-63
2022/07/21 00:30:30;;;;;;;8.73;6.90;;;25.60;72.90;;;;;;5076008;28;20451;-63
2022/07/21 00:32:59;;;;;;;10.23;8.00;;;25.50;73.00;;;;;;5075854;28;20542;-63
2022/07/21 00:35:25;;;;;;;8.13;7.43;;;25.30;72.80;;;;;;5075846;28;20447;-63
2022/07/21 00:37:52;;;;;;;9.43;8.43;;;25.20;73.50;;;;;;5075922;28;20536;-63
2022/07/21 00:40:19;;;;;;;8.13;6.87;;;25.00;73.10;;;;;;5075882;28;20447;-63
2022/07/21 00:42:45;;;;;;;8.00;7.20;;;25.10;73.10;;;;;;5075806;28;20448;-64
2022/07/21 00:45:13;;;;;;;9.57;6.90;;;25.10;73.80;;;;;;5075709;28;20494;-63
2022/07/21 00:47:40;;;;;;;9.40;6.60;;;25.10;73.40;;;;;;5075650;28;20849;-63
2022/07/21 00:50:10;;;;;;;7.43;6.90;;;25.10;73.60;;;;;;5075776;28;20464;-63
2022/07/21 00:52:37;;;;;;;8.47;7.67;;;25.10;73.50;;;;;;5075722;28;20442;-63
2022/07/21 00:55:05;;;;;;;8.33;7.03;;;25.10;73.20;;;;;;5075668;28;20517;-63
2022/07/21 00:57:31;;;;;;;8.30;7.60;;;25.00;73.10;;;;;;5075359;28;20520;-63
2022/07/21 00:59:58;;;;;;;7.53;6.90;;;25.10;73.70;;;;;;5075368;28;21033;-63
2022/07/21 01:02:26;;;;;;;7.17;6.47;;;25.00;74.00;;;;;;5075295;28;20801;-63
2022/07/21 01:04:53;;;;;;;7.63;6.93;;;25.00;73.60;;;;;;5075466;28;20439;-63
2022/07/21 01:07:21;;;;;;;9.00;6.80;;;25.10;73.90;;;;;;5075386;28;20443;-63
2022/07/21 01:09:48;;;;;;;8.00;7.33;;;25.30;73.60;;;;;;5075125;28;20527;-63
2022/07/21 01:12:14;;;;;;;9.13;7.07;;;25.40;72.80;;;;;;5075224;28;20457;-63
2022/07/21 01:14:41;;;;;;;7.10;6.60;;;25.40;73.10;;;;;;5075112;28;20447;-63
2022/07/21 01:17:07;;;;;;;12.07;7.43;;;25.50;72.50;;;;;;5075003;28;20447;-63
2022/07/21 01:19:34;;;;;;;8.80;7.53;;;25.50;71.90;;;;;;5075210;28;20538;-63
2022/07/21 01:22:02;;;;;;;7.33;6.13;;;25.60;71.80;;;;;;5073941;28;20449;-63
2022/07/21 01:24:29;;;;;;;10.03;7.27;;;25.70;71.80;;;;;;5075065;28;20448;-63
2022/07/21 01:26:55;;;;;;;9.57;6.60;;;25.70;71.60;;;;;;5074931;28;20479;-63
2022/07/21 01:29:23;;;;;;;7.93;7.13;;;25.70;71.80;;;;;;5074793;28;20479;-63
2022/07/21 01:31:50;;;;;;;12.37;7.57;;;25.50;73.10;;;;;;5075013;28;20451;-63
2022/07/21 01:34:18;;;;;;;9.83;7.00;;;25.10;74.70;;;;;;5074938;28;20448;-63
2022/07/21 01:36:44;;;;;;;7.23;6.63;;;24.80;75.40;;;;;;5074843;28;20483;-63
2022/07/21 01:41:56;;;;;;;8.60;7.70;;;24.50;76.80;;;;;;5043552;28;20431;-63
2022/07/21 01:44:23;;;;;;;7.93;7.07;;;24.20;78.40;;;;;;5074739;28;20598;-63
2022/07/21 01:46:51;;;;;;;12.17;7.57;;;24.20;78.80;;;;;;5074667;28;20444;-63
2022/07/21 01:49:19;;;;;;;8.60;7.67;;;24.30;78.10;;;;;;5074438;28;20829;-63
2022/07/21 01:51:46;;;;;;;7.33;6.67;;;24.30;77.60;;;;;;5074525;28;20490;-63
2022/07/21 01:54:14;;;;;;;9.63;6.90;;;24.30;78.50;;;;;;5074329;28;20546;-64
2022/07/21 01:56:40;;;;;;;7.13;6.50;;;24.50;77.90;;;;;;5074125;28;20839;-63
2022/07/21 01:59:08;;;;;;;6.93;6.30;;;24.80;77.20;;;;;;5074466;28;20483;-63
2022/07/21 02:01:35;;;;;;;8.00;7.30;;;25.00;77.70;;;;;;5074535;28;20841;-63
2022/07/21 02:04:04;;;;;;;9.80;6.60;;;25.10;78.50;;;;;;5074319;28;20443;-63
2022/07/21 02:06:31;;;;;;;9.30;7.13;;;25.20;78.30;;;;;;5074053;28;21022;-63
2022/07/21 02:08:57;;;;;;;7.17;6.47;;;24.80;77.20;;;;;;5073928;28;20465;-63
2022/07/21 02:11:25;;;;;;;9.97;6.87;;;24.70;78.50;;;;;;5074231;28;20458;-63
2022/07/21 02:13:52;;;;;;;7.53;6.70;;;24.70;78.00;;;;;;5074130;28;20444;-63
2022/07/21 02:16:18;;;;;;;7.67;6.40;;;24.80;77.70;;;;;;5074023;28;20425;-63
2022/07/21 02:18:45;;;;;;;7.53;6.83;;;24.90;78.60;;;;;;5073979;28;20451;-63
2022/07/21 02:21:13;;;;;;;8.73;8.03;;;25.00;79.70;;;;;;5073911;28;20447;-63
2022/07/21 02:23:39;;;;;;;8.03;6.80;;;25.10;79.60;;;;;;5073683;28;20490;-63
2022/07/21 02:26:06;;;;;;;7.83;6.77;;;25.20;79.50;;;;;;5073967;28;20679;-63
2022/07/21 02:28:34;;;;;;;7.23;6.53;;;25.30;79.20;;;;;;5073760;28;20450;-63
2022/07/21 02:31:01;;;;;;;8.13;7.33;;;25.30;79.20;;;;;;5073722;28;20523;-63
2022/07/21 02:33:27;;;;;;;8.23;7.50;;;25.30;79.30;;;;;;5073347;28;20448;-63
2022/07/21 02:35:54;;;;;;;10.13;5.93;;;25.40;79.30;;;;;;5073555;28;20796;-63
2022/07/21 02:38:20;;;;;;;8.07;7.37;;;25.40;79.50;;;;;;5073443;28;20558;-63
2022/07/21 02:40:47;;;;;;;7.50;6.07;;;25.40;79.60;;;;;;5073627;28;20458;-63
2022/07/21 02:43:14;;;;;;;7.33;6.70;;;25.40;79.00;;;;;;5073564;28;20533;-63
2022/07/21 02:45:43;;;;;;;8.37;7.53;;;25.40;79.30;;;;;;5073489;28;20443;-63
2022/07/21 02:48:12;;;;;;;8.23;7.63;;;25.40;79.10;;;;;;5073386;28;20443;-63
2022/07/21 02:50:40;;;;;;;7.43;6.70;;;25.30;79.40;;;;;;5073183;28;20536;-63
2022/07/21 02:53:08;;;;;;;9.97;8.00;;;25.30;79.40;;;;;;5073473;28;20459;-63
2022/07/21 02:55:35;;;;;;;10.77;7.60;;;25.20;79.40;;;;;;5073189;28;20454;-63
2022/07/21 02:58:06;;;;;;;7.73;6.83;;;25.20;79.80;;;;;;5073010;28;20490;-63
2022/07/21 03:00:35;;;;;;;7.83;7.03;;;25.10;80.80;;;;;;5073150;28;20535;-63
2022/07/21 03:03:04;;;;;;;8.53;7.73;;;25.20;81.00;;;;;;5073130;28;20443;-63
2022/07/21 03:05:30;;;;;;;7.83;7.10;;;24.50;82.20;;;;;;5072994;28;20452;-63
2022/07/21 03:07:56;;;;;;;9.03;6.80;;;24.60;83.00;;;;;;5073223;28;20443;-63
2022/07/21 03:10:23;;;;;;;7.17;6.47;;;24.70;82.40;;;;;;5073074;28;20863;-63
2022/07/21 03:12:49;;;;;;;8.57;7.23;;;24.40;81.90;;;;;;5072990;28;20439;-63
2022/07/21 03:15:16;;;;;;;8.13;6.50;;;24.40;82.50;;;;;;5073092;28;20450;-63
2022/07/21 03:17:43;;;;;;;8.17;6.27;;;24.10;82.90;;;;;;5072796;28;20440;-63
2022/07/21 03:20:11;;;;;;;7.67;6.50;;;23.90;83.20;;;;;;5073075;28;20534;-63
2022/07/21 03:22:38;;;;;;;6.97;6.40;;;23.90;83.50;;;;;;5072998;28;20490;-63
2022/07/21 03:25:06;;;;;;;8.07;6.60;;;23.90;84.80;;;;;;5072960;28;20930;-63
2022/07/21 03:27:35;;;;;;;11.00;6.33;;;23.90;84.10;;;;;;5072923;28;20461;-63
2022/07/21 03:30:03;;;;;;;7.27;6.27;;;24.00;84.60;;;;;;5072684;28;20517;-63
2022/07/21 03:32:29;;;;;;;8.10;6.77;;;24.10;84.80;;;;;;5072737;28;20546;-63
2022/07/21 03:34:56;;;;;;;8.53;6.93;;;24.20;84.30;;;;;;5072903;28;20452;-63
2022/07/21 03:37:24;;;;;;;8.03;6.60;;;24.40;85.70;;;;;;5072831;28;20453;-63
2022/07/21 03:39:50;;;;;;;7.50;5.50;;;24.40;85.20;;;;;;5072818;28;20454;-63
2022/07/21 03:42:17;;;;;;;8.27;6.60;;;24.50;85.30;;;;;;5072758;28;20453;-63
2022/07/21 03:44:43;;;;;;;6.20;5.70;;;24.70;86.70;;;;;;5074769;28;20537;-63
2022/07/21 03:47:10;;;;;;;6.30;5.57;;;24.90;86.10;;;;;;5076677;28;20448;-63
2022/07/21 03:49:36;;;;;;;5.60;5.10;;;25.00;87.20;;;;;;5076861;28;20479;-63
2022/07/21 03:52:03;;;;;;;7.80;5.17;;;25.10;86.10;;;;;;5076823;28;20447;-63
2022/07/21 03:54:31;;;;;;;10.47;5.90;;;25.20;85.50;;;;;;5076743;28;20453;-63
2022/07/21 03:56:57;;;;;;;5.83;4.80;;;25.30;85.30;;;;;;5076432;28;20570;-63
2022/07/21 03:59:24;;;;;;;6.50;5.33;;;25.30;84.20;;;;;;5076529;28;20451;-63
2022/07/21 04:01:50;;;;;;;6.67;5.00;;;25.30;83.10;;;;;;5076698;28;20443;-64
2022/07/21 04:04:17;;;;;;;8.17;5.50;;;25.40;84.10;;;;;;5076570;28;20447;-63
2022/07/21 04:06:43;;;;;;;4.60;4.20;;;25.50;83.60;;;;;;5076553;28;20542;-63
2022/07/21 04:09:10;;;;;;;5.93;5.00;;;25.60;82.40;;;;;;5076391;28;20451;-63
2022/07/21 04:11:38;;;;;;;7.77;5.20;;;25.60;82.80;;;;;;5076277;28;20538;-63
2022/07/21 04:14:05;;;;;;;9.20;5.43;;;25.70;82.90;;;;;;5076211;28;20454;-63
2022/07/21 04:16:31;;;;;;;5.47;5.07;;;25.70;82.10;;;;;;5076332;28;20454;-63
2022/07/21 04:18:58;;;;;;;5.57;5.07;;;25.80;82.50;;;;;;5076220;28;20802;-63
2022/07/21 04:21:24;;;;;;;8.33;4.87;;;25.80;82.50;;;;;;5076194;28;20509;-63
2022/07/21 04:23:50;;;;;;;6.37;4.57;;;25.80;81.70;;;;;;5076036;28;20542;-63
2022/07/21 04:26:17;;;;;;;6.07;5.53;;;25.80;82.10;;;;;;5076023;28;20823;-63
2022/07/21 04:28:45;;;;;;;7.70;5.10;;;25.80;82.10;;;;;;5075804;28;20451;-63
2022/07/21 04:31:11;;;;;;;5.63;5.00;;;25.90;83.50;;;;;;5075954;28;20483;-63
2022/07/21 04:33:38;;;;;;;6.40;5.80;;;25.80;83.10;;;;;;5075809;28;20457;-63
2022/07/21 04:36:05;;;;;;;7.93;5.90;;;25.70;83.60;;;;;;5075867;28;20451;-63
2022/07/21 04:38:31;;;;;;;5.60;5.10;;;25.70;84.30;;;;;;5075778;28;20962;-63
2022/07/21 04:40:58;;;;;;;6.63;6.00;;;25.80;84.60;;;;;;5075660;28;20458;-63
2022/07/21 04:43:24;;;;;;;8.23;5.90;;;25.80;84.50;;;;;;5075913;28;20451;-63
2022/07/21 04:45:52;;;;;;;6.37;5.30;;;25.80;85.50;;;;;;5075788;28;20457;-63
2022/07/21 04:48:18;;;;;;;9.23;5.70;;;25.90;84.80;;;;;;5075908;28;20457;-63
2022/07/21 04:50:45;;;;;;;6.73;5.90;;;25.90;84.60;;;;;;5075502;28;20489;-63
2022/07/21 04:53:11;;;;;;;9.17;6.37;;;25.90;84.80;;;;;;5075557;28;20483;-64
2022/07/21 04:55:38;;;;;;;10.67;6.07;;;26.00;85.50;;;;;;5075255;28;20496;-63
2022/07/21 04:58:04;;;;;;;6.07;5.57;;;26.00;85.10;;;;;;5075298;28;20578;-63
2022/07/21 05:00:31;;;;;;;8.47;6.00;;;26.00;85.90;;;;;;5075498;28;20448;-63
2022/07/21 05:02:59;;;;;;;7.57;6.37;;;26.00;86.10;;;;;;5075477;28;20481;-63
2022/07/21 05:05:25;;;;;;;7.30;5.87;;;26.00;86.30;;;;;;5075387;28;20538;-63
2022/07/21 05:07:52;;;;;;;6.80;6.20;;;26.20;86.60;;;;;;5075219;28;20477;-63
2022/07/21 05:10:18;;;;;;;7.03;6.33;;;26.30;86.00;;;;;;5075109;28;20478;-63
2022/07/21 05:12:45;;;;;;;6.37;5.80;;;26.30;85.10;;;;;;5075339;28;20448;-63
2022/07/21 05:15:12;;;;;;;8.63;6.27;;;26.40;85.60;;;;;;5075221;28;20502;-63
2022/07/21 05:17:39;;;;;;;7.57;6.87;;;26.50;83.20;;;;;;5075065;28;20443;-63
2022/07/21 05:20:09;;;;;;;13.57;7.30;;;26.60;83.40;;;;;;5075168;28;20554;-63
2022/07/21 05:22:35;;;;;;;9.30;7.10;;;26.60;82.10;;;;;;5074776;28;20938;-63
2022/07/21 05:25:02;;;;;;;10.40;8.03;;;26.70;82.80;;;;;;5075048;28;20443;-63
2022/07/21 05:27:29;;;;;;;13.83;8.37;;;26.70;82.00;;;;;;5075021;28;20799;-63
2022/07/21 05:29:55;;;;;;;9.30;8.10;;;26.80;81.50;;;;;;5074877;28;20562;-63
2022/07/21 05:32:22;;;;;;;9.30;8.53;;;26.90;81.90;;;;;;5074844;28;20853;-63
2022/07/21 05:34:48;;;;;;;12.90;9.73;;;26.90;81.50;;;;;;5074780;28;20806;-63
2022/07/21 05:37:16;;;;;;;11.03;10.13;;;26.80;80.30;;;;;;5074516;28;20447;-63
2022/07/21 05:39:43;;;;;;;12.50;9.73;;;26.70;81.20;;;;;;5075017;28;20840;-63
2022/07/21 05:42:09;;;;;;;11.93;10.83;;;26.70;81.20;;;;;;5074704;28;20477;-63
2022/07/21 05:44:36;;;;;;;12.77;11.40;;;26.90;81.40;;;;;;5074659;28;20452;-63
2022/07/21 05:47:02;;;;;;;11.73;10.63;;;27.10;80.30;;;;;;5074485;28;20538;-63
2022/07/21 05:49:29;;;;;;;18.20;10.43;;;27.10;80.30;;;;;;5074379;28;20447;-63
2022/07/21 05:51:55;;;;;;;14.33;12.20;;;27.00;80.50;;;;;;5074152;28;20486;-63
2022/07/21 05:54:23;;;;;;;12.93;11.83;;;27.10;80.60;;;;;;5074401;28;20443;-63
2022/07/21 05:56:49;;;;;;;14.70;12.90;;;27.20;80.90;;;;;;5074096;28;20478;-63
2022/07/21 05:59:16;;;;;;;13.13;11.70;;;27.10;80.90;;;;;;5074226;28;20537;-63
2022/07/21 06:01:42;;;;;;;14.13;12.63;;;27.20;80.40;;;;;;5074177;28;20455;-63
2022/07/21 06:04:09;;;;;;;13.57;12.23;;;27.20;79.90;;;;;;5074022;28;20451;-63
2022/07/21 06:06:35;;;;;;;14.30;13.00;;;27.20;80.10;;;;;;5073253;28;20942;-63
2022/07/21 06:09:02;;;;;;;14.57;13.27;;;27.30;80.50;;;;;;5074082;28;20447;-63
2022/07/21 06:11:30;;;;;;;14.23;12.90;;;27.30;79.60;;;;;;5073891;28;20515;-63
2022/07/21 06:13:56;;;;;;;14.70;13.40;;;27.40;79.60;;;;;;5073908;28;20548;-63
2022/07/21 06:16:23;;;;;;;13.63;12.43;;;27.40;79.30;;;;;;5073877;28;20448;-63
2022/07/21 06:18:49;;;;;;;14.10;12.97;;;27.40;79.50;;;;;;5073823;28;20477;-63
2022/07/21 06:21:16;;;;;;;14.30;13.13;;;27.30;78.70;;;;;;5073686;28;20447;-63
2022/07/21 06:23:42;;;;;;;15.90;14.40;;;27.10;79.80;;;;;;5073773;28;20443;-63
2022/07/21 06:26:08;;;;;;;14.60;13.10;;;27.20;79.90;;;;;;5073699;28;20817;-63
2022/07/21 06:28:36;;;;;;;14.47;13.10;;;27.20;79.60;;;;;;5073601;28;20530;-64
2022/07/21 06:31:03;;;;;;;13.80;12.83;;;27.30;80.20;;;;;;5073445;28;20838;-63
2022/07/21 06:33:30;;;;;;;15.53;13.90;;;27.20;80.80;;;;;;5073229;28;20531;-63
2022/07/21 06:35:56;;;;;;;15.70;14.17;;;27.30;79.80;;;;;;5073618;28;20489;-63
2022/07/21 06:38:23;;;;;;;15.20;13.70;;;27.40;80.40;;;;;;5073586;28;20448;-63
2022/07/21 06:40:49;;;;;;;19.13;14.60;;;27.50;80.20;;;;;;5073462;28;20542;-63
2022/07/21 06:43:16;;;;;;;14.70;13.30;;;27.50;79.60;;;;;;5073221;28;20466;-63
2022/07/21 06:45:44;;;;;;;14.70;13.40;;;27.60;80.00;;;;;;5073385;28;20804;-63
2022/07/21 06:48:10;;;;;;;14.20;12.53;;;27.60;80.50;;;;;;5073182;28;20814;-63
2022/07/21 06:50:37;;;;;;;14.30;12.97;;;27.80;80.00;;;;;;5073212;28;20514;-63
2022/07/21 06:53:04;;;;;;;13.63;12.43;;;27.80;79.80;;;;;;5073312;28;20451;-63
2022/07/21 06:55:31;;;;;;;15.07;13.67;;;27.80;79.80;;;;;;5073266;28;20447;-62
2022/07/21 06:57:57;;;;;;;14.17;12.87;;;27.80;79.30;;;;;;5072963;28;20475;-62
2022/07/21 07:00:24;;;;;;;14.43;13.23;;;27.70;79.60;;;;;;5072888;28;20550;-62
2022/07/21 07:02:52;;;;;;;15.47;14.07;;;27.50;79.80;;;;;;5072845;28;20462;-63
2022/07/21 07:05:18;;;;;;;15.90;14.17;;;27.50;80.20;;;;;;5073119;28;20538;-62
2022/07/21 07:07:47;;;;;;;14.63;13.30;;;27.40;80.80;;;;;;5073055;28;20443;-62
2022/07/21 07:10:14;;;;;;;13.77;12.53;;;27.30;81.10;;;;;;5072969;28;20471;-63
2022/07/21 07:12:40;;;;;;;14.33;12.90;;;27.40;81.70;;;;;;5072876;28;20452;-63
2022/07/21 07:15:08;;;;;;;15.23;13.63;;;27.70;81.40;;;;;;5072789;28;20457;-63
2022/07/21 07:17:34;;;;;;;14.47;13.20;;;27.90;81.20;;;;;;5072963;28;20447;-63
2022/07/21 07:20:03;;;;;;;14.20;12.90;;;28.00;80.80;;;;;;5072113;28;20444;-63
2022/07/21 07:22:30;;;;;;;20.63;13.50;;;28.10;80.30;;;;;;5072783;28;20853;-63
2022/07/21 07:24:56;;;;;;;14.37;12.70;;;28.00;79.80;;;;;;5072843;28;20443;-63
2022/07/21 07:27:23;;;;;;;15.10;13.80;;;28.00;79.60;;;;;;5072728;28;20457;-63
2022/07/21 07:29:49;;;;;;;13.20;12.10;;;28.00;79.60;;;;;;5072628;28;20444;-63
2022/07/21 07:32:16;;;;;;;14.50;13.00;;;28.10;80.50;;;;;;5072943;28;20885;-63
2022/07/21 07:34:42;;;;;;;14.10;12.97;;;28.00;81.20;;;;;;5072810;28;20962;-62
2022/07/21 07:37:10;;;;;;;14.30;12.83;;;28.30;81.70;;;;;;5072788;28;20538;-62
2022/07/21 07:39:37;;;;;;;14.10;12.70;;;28.40;80.20;;;;;;5072620;28;20944;-62
2022/07/21 07:42:04;;;;;;;14.03;12.70;;;28.60;80.00;;;;;;5072458;28;20447;-62
2022/07/21 07:44:31;;;;;;;13.97;12.50;;;28.70;79.50;;;;;;5072307;28;20439;-62
2022/07/21 07:46:58;;;;;;;13.90;12.03;;;28.90;79.10;;;;;;5072830;28;20439;-62
2022/07/21 07:49:25;;;;;;;14.10;12.63;;;29.00;79.50;;;;;;5072689;28;20479;-63
2022/07/21 07:51:51;;;;;;;13.30;12.10;;;29.00;78.60;;;;;;5072439;28;20490;-64
2022/07/21 07:54:19;;;;;;;13.93;12.53;;;29.20;78.40;;;;;;5072538;28;20443;-63
2022/07/21 07:56:45;;;;;;;12.73;11.57;;;29.30;77.60;;;;;;5072255;28;20507;-63
2022/07/21 07:59:12;;;;;;;12.47;11.40;;;29.40;77.90;;;;;;5072568;28;20447;-63
2022/07/21 08:01:38;;;;;;;13.77;12.27;;;29.50;77.00;;;;;;5072566;28;20457;-64
2022/07/21 08:04:06;;;;;;;12.23;11.07;;;29.50;77.90;;;;;;5072508;28;20452;-64
2022/07/21 08:06:32;;;;;;;13.10;11.80;;;29.60;77.30;;;;;;5072321;28;20453;-64
2022/07/21 08:08:59;;;;;;;14.47;13.17;;;29.80;76.70;;;;;;5072358;28;20448;-63
2022/07/21 08:11:27;;;;;;;13.07;11.80;;;29.90;76.80;;;;;;5072086;28;21039;-64
2022/07/21 08:13:53;;;;;;;13.00;11.70;;;29.80;75.20;;;;;;5072454;28;20454;-63
2022/07/21 08:16:20;;;;;;;12.67;11.40;;;29.90;77.00;;;;;;5072441;28;20449;-62
2022/07/21 08:18:46;;;;;;;17.97;12.23;;;30.10;76.40;;;;;;5072267;28;20538;-62
2022/07/21 08:21:13;;;;;;;12.77;11.80;;;30.30;75.00;;;;;;5072246;28;20444;-63
2022/07/21 08:23:39;;;;;;;11.33;10.33;;;30.30;74.80;;;;;;5072171;28;21013;-63
2022/07/21 08:26:06;;;;;;;12.33;11.17;;;30.20;74.40;;;;;;5072161;28;20449;-63
2022/07/21 08:28:34;;;;;;;12.60;11.40;;;30.10;74.50;;;;;;5072321;28;20447;-63
2022/07/21 08:31:00;;;;;;;12.20;10.70;;;30.10;75.20;;;;;;5074593;28;20846;-63
2022/07/21 08:33:26;;;;;;;12.33;10.03;;;30.20;75.60;;;;;;5075890;28;20498;-63
2022/07/21 08:35:53;;;;;;;11.57;10.63;;;30.40;75.60;;;;;;5075910;28;20534;-63
2022/07/21 08:38:20;;;;;;;14.07;11.20;;;30.50;74.70;;;;;;5075719;28;20470;-63
2022/07/21 08:40:47;;;;;;;10.93;9.70;;;30.60;74.20;;;;;;5075466;28;20463;-63
2022/07/21 08:43:14;;;;;;;10.97;9.70;;;30.70;73.30;;;;;;5075524;28;20972;-63
2022/07/21 08:45:43;;;;;;;10.87;9.87;;;30.70;73.20;;;;;;5075724;28;20493;-63
2022/07/21 08:48:09;;;;;;;14.10;10.33;;;30.80;73.30;;;;;;5075581;28;20451;-63
2022/07/21 08:50:37;;;;;;;12.90;10.23;;;30.70;73.40;;;;;;5075384;28;20454;-63
2022/07/21 08:53:04;;;;;;;10.67;9.60;;;30.50;73.40;;;;;;5075349;28;20453;-63
2022/07/21 08:55:31;;;;;;;11.20;10.20;;;30.50;73.80;;;;;;5075563;28;20448;-64
2022/07/21 08:57:58;;;;;;;11.07;10.17;;;30.30;73.30;;;;;;5075170;28;20562;-64
2022/07/21 09:00:24;;;;;;;11.27;10.27;;;30.30;75.00;;;;;;5075325;28;20887;-64
2022/07/21 09:03:09;;;;;;;11.27;10.10;;;30.50;73.60;;;;;;5075272;28;20913;-64
2022/07/21 09:05:36;;;;;;;11.47;9.20;;;30.60;74.10;;;;;;5075221;28;20447;-63
2022/07/21 09:08:03;;;;;;;11.10;9.97;;;30.60;74.10;;;;;;5068634;28;20447;-64
2022/07/21 09:10:31;;;;;;;13.47;10.30;;;30.70;73.20;;;;;;5055575;28;20455;-64
2022/07/21 09:13:00;;;;;;;11.20;10.30;;;30.80;73.60;;;;;;5055115;28;20847;-64
2022/07/21 09:15:28;;;;;;;10.43;9.70;;;30.80;74.00;;;;;;5055006;28;20457;-63
2022/07/21 09:18:08;;;;;;;10.00;9.07;;;30.90;73.10;;;;;;5054914;28;20531;-60
2022/07/21 09:20:36;;;;;;;10.37;9.23;;;30.90;74.00;;;;;;5054656;28;20931;-63
2022/07/21 09:23:08;;;;;;;10.18;9.38;;;31.00;73.70;;;;;;5065810;28;20537;-60
2022/07/21 09:25:37;;;;;;;10.07;9.20;;;30.90;73.20;;;;;;5074694;28;20716;-61
2022/07/21 09:28:11;;;;;;;10.20;9.27;;;30.90;74.10;;;;;;5074435;28;20451;-63
2022/07/21 09:30:57;;;;;;;11.30;8.90;;;31.00;72.90;;;;;;5074640;28;20542;-61
2022/07/21 09:33:28;;;;;;;9.10;8.30;;;30.90;73.60;;;;;;5074885;28;20451;-60
2022/07/21 09:36:00;;;;;;;10.50;8.90;;;31.30;73.60;;;;;;5074589;28;20793;-62
2022/07/21 09:38:27;;;;;;;9.43;8.63;;;31.50;72.30;;;;;;5074739;28;20542;-61
2022/07/21 09:40:56;;;;;;;10.43;8.20;;;31.70;71.10;;;;;;5074117;28;20447;-64
2022/07/21 09:43:30;;;;;;;9.33;7.80;;;31.50;72.40;;;;;;5074213;28;20448;-66
2022/07/21 09:45:59;;;;;;;7.90;7.13;;;31.50;71.30;;;;;;5074395;28;20522;-66
2022/07/21 09:48:35;;;;;;;7.37;6.67;;;32.00;71.00;;;;;;5074290;28;20455;-64
2022/07/21 09:51:20;;;;;;;6.20;5.70;;;32.30;70.50;;;;;;5073598;28;21006;-62
2022/07/21 09:53:52;;;;;;;7.23;6.07;;;32.50;68.10;;;;;;5074599;28;20459;-60
2022/07/21 09:56:20;;;;;;;9.70;6.23;;;32.70;68.00;;;;;;5073839;28;20543;-65
2022/07/21 09:58:48;;;;;;;8.87;6.80;;;32.90;69.10;;;;;;5073926;28;20461;-65
2022/07/21 10:01:15;;;;;;;6.83;6.17;;;32.80;67.30;;;;;;5074134;28;20968;-62
2022/07/21 10:03:45;;;;;;;7.40;6.10;;;32.70;66.70;;;;;;5074143;28;20539;-64
2022/07/21 10:06:12;;;;;;;7.10;6.50;;;32.50;66.30;;;;;;5073868;28;20479;-61
2022/07/21 10:08:40;;;;;;;9.27;6.83;;;32.20;66.20;;;;;;5074418;28;20451;-62
2022/07/21 10:11:07;;;;;;;7.27;6.57;;;32.20;67.40;;;;;;5073902;28;20530;-64
2022/07/21 10:13:33;;;;;;;6.80;6.10;;;32.20;68.10;;;;;;5073978;28;20450;-63
2022/07/21 10:16:01;;;;;;;7.27;6.57;;;32.20;68.40;;;;;;5073915;28;20490;-64
2022/07/21 10:18:30;;;;;;;6.10;5.60;;;32.20;67.50;;;;;;5073363;28;20443;-66
2022/07/21 10:21:05;;;;;;;6.57;5.97;;;32.50;67.30;;;;;;5074166;28;20458;-72
2022/07/21 10:23:40;;;;;;;6.03;5.47;;;32.50;67.80;;;;;;5073297;28;20498;-62
2022/07/21 10:26:10;;;;;;;7.20;5.88;;;32.70;66.30;;;;;;5053443;28;20535;-63
2022/07/21 10:28:37;;;;;;;6.53;6.03;;;33.00;66.60;;;;;;5072708;28;20185;-63
2022/07/21 10:31:15;;;;;;;8.33;6.30;;;33.20;66.10;;;;;;5071953;28;20539;-65
2022/07/21 10:34:00;;;;;;;7.93;7.10;;;33.20;65.50;;;;;;5072459;28;20954;-61
2022/07/21 10:36:47;;;;;;;7.37;6.67;;;33.20;66.00;;;;;;5073531;28;20598;-63
2022/07/21 10:39:19;;;;;;;5.90;5.40;;;33.10;65.60;;;;;;5073160;28;20445;-65
2022/07/21 10:41:48;;;;;;;13.70;6.20;;;33.20;65.30;;;;;;5073643;28;20451;-59
2022/07/21 10:44:44;;;;;;;9.30;6.40;;;33.20;65.80;;;;;;5073099;28;20534;-63
2022/07/21 10:47:12;;;;;;;8.57;6.13;;;33.30;66.20;;;;;;5073364;28;20890;-63
2022/07/21 10:49:51;;;;;;;5.50;5.10;;;33.20;66.20;;;;;;5073145;28;20544;-60
2022/07/21 10:52:59;;;;;;;5.77;5.27;;;33.30;66.40;;;;;;5073166;28;20525;-61
2022/07/21 10:55:28;;;;;;;6.37;5.67;;;33.10;64.90;;;;;;5072340;28;20811;-62
2022/07/21 10:58:16;;;;;;;6.53;5.30;;;33.10;66.00;;;;;;5070629;28;21000;-58
2022/07/21 11:00:47;;;;;;;5.63;5.20;;;33.40;66.30;;;;;;5069906;28;20530;-59
2022/07/21 11:03:17;;;;;;;6.17;5.60;;;33.50;64.10;;;;;;5072445;28;20618;-60
2022/07/21 11:06:23;;;;;;;5.13;4.80;;;33.60;64.40;;;;;;5069740;28;20562;-64
2022/07/21 11:08:53;;;;;;;6.70;5.20;;;33.90;64.70;;;;;;5071684;28;20463;-64
2022/07/21 11:11:22;;;;;;;5.83;5.27;;;34.10;63.40;;;;;;5072384;28;20874;-62
2022/07/21 11:14:06;;;;;;;6.13;5.10;;;34.20;62.80;;;;;;5072905;28;20859;-62
2022/07/21 11:17:01;;;;;;;5.27;4.87;;;34.10;62.10;;;;;;5072884;28;20494;-61
2022/07/21 11:19:28;;;;;;;5.20;4.80;;;33.80;62.70;;;;;;5072940;28;20454;-61
2022/07/21 11:21:55;;;;;;;5.90;4.80;;;33.80;62.90;;;;;;5072270;28;20436;-61
2022/07/21 11:24:25;;;;;;;5.43;4.93;;;33.70;63.50;;;;;;5072898;28;20543;-60
2022/07/21 11:26:54;;;;;;;5.30;4.80;;;33.50;63.60;;;;;;5072077;28;20443;-61
2022/07/21 11:29:21;;;;;;;5.17;4.77;;;33.50;63.20;;;;;;5072553;28;20446;-58
2022/07/21 11:31:49;;;;;;;4.80;4.40;;;33.40;63.10;;;;;;5072932;28;20476;-59
2022/07/21 11:34:15;;;;;;;6.63;4.83;;;33.40;64.00;;;;;;5072771;28;20847;-59
2022/07/21 11:36:42;;;;;;;6.10;5.50;;;33.30;64.10;;;;;;5072379;28;20448;-59
2022/07/21 11:39:11;;;;;;;6.20;5.80;;;33.40;64.10;;;;;;5072648;28;20951;-59
2022/07/21 11:41:40;;;;;;;6.00;5.37;;;33.40;64.40;;;;;;5072608;28;20445;-58
2022/07/21 11:44:08;;;;;;;5.10;4.60;;;33.10;64.20;;;;;;5072309;28;20963;-63
2022/07/21 11:46:49;;;;;;;8.00;4.70;;;33.20;64.60;;;;;;5072772;28;20816;-64
2022/07/21 11:49:16;;;;;;;4.90;4.47;;;33.00;64.50;;;;;;5072236;28;20527;-63
2022/07/21 11:51:50;;;;;;;4.70;4.40;;;33.10;64.30;;;;;;5071726;28;20535;-62
2022/07/21 11:54:25;;;;;;;5.40;4.90;;;33.30;64.10;;;;;;5070406;28;20439;-62
2022/07/21 11:56:54;;;;;;;4.90;4.60;;;33.40;63.90;;;;;;5071529;28;20467;-65
2022/07/21 11:59:22;;;;;;;5.27;4.87;;;33.50;63.50;;;;;;5071892;28;20454;-65
2022/07/21 12:01:50;;;;;;;4.90;4.50;;;33.20;64.20;;;;;;5068761;28;20520;-61
2022/07/21 12:04:31;;;;;;;5.03;4.73;;;33.40;64.10;;;;;;5069319;28;21034;-62
2022/07/21 12:06:58;;;;;;;5.00;4.70;;;33.40;63.60;;;;;;5075823;28;20535;-61
2022/07/21 12:09:26;;;;;;;6.83;5.00;;;33.30;64.50;;;;;;5076378;28;20447;-61
2022/07/21 12:11:54;;;;;;;5.90;5.27;;;33.10;64.80;;;;;;5076089;28;20547;-59
2022/07/21 12:14:22;;;;;;;5.70;5.20;;;32.90;64.60;;;;;;5075732;28;20451;-61
2022/07/21 12:16:50;;;;;;;4.97;4.57;;;32.60;65.20;;;;;;5074593;28;20814;-61
2022/07/21 12:19:18;;;;;;;5.10;4.70;;;32.30;66.30;;;;;;5076135;28;20558;-61
2022/07/21 12:21:46;;;;;;;4.97;4.60;;;32.20;66.50;;;;;;5075848;28;20534;-61
2022/07/21 12:24:13;;;;;;;5.50;4.90;;;32.20;67.40;;;;;;5076248;28;20481;-61
2022/07/21 12:26:39;;;;;;;4.97;4.67;;;32.20;67.90;;;;;;5076071;28;20461;-61
2022/07/21 12:29:07;;;;;;;5.47;4.97;;;32.20;67.50;;;;;;5076031;28;20460;-61
2022/07/21 12:31:36;;;;;;;6.07;4.70;;;32.20;67.80;;;;;;5075792;28;20925;-61
2022/07/21 12:34:13;;;;;;;7.30;5.30;;;32.20;67.70;;;;;;5073608;28;20455;-61
2022/07/21 12:36:40;;;;;;;5.60;5.20;;;32.20;68.70;;;;;;5075398;28;20447;-61
2022/07/21 12:42:08;;;;;;;5.37;4.87;;;32.10;69.30;;;;;;5068229;28;21201;-61
2022/07/21 12:44:37;;;;;;;5.03;4.63;;;32.00;71.90;;;;;;5075308;28;20474;-61
2022/07/21 12:47:14;;;;;;;5.37;4.30;;;32.10;72.30;;;;;;5075266;28;20905;-61
2022/07/21 12:49:58;;;;;;;4.97;4.00;;;32.30;72.10;;;;;;5073791;28;20444;-61
2022/07/21 12:52:25;;;;;;;3.83;3.53;;;32.10;72.00;;;;;;5074015;28;20812;-61